Time;durP1;ratioP1;P1;durP2;ratioP2;P2;SDS_P1;SDS_P2;PMS_P1;PMS_P2;Temp;Humidity;BMP_temperature;BMP_pressure;BME280_temperature;BME280_humidity;BME280_pressure;Samples;Min_cycle;Max_cycle;Signal;HPM_P1;HPM_P2
2022/09/01 00:01:26;;;;;;;4.87;4.47;;;14.20;99.90;;;;;;494093;241;28818;-72
2022/09/01 00:03:28;;;;;;;4.83;4.43;;;14.20;99.90;;;;;;494092;241;28815;-68
2022/09/01 00:05:31;;;;;;;4.40;4.00;;;14.20;99.90;;;;;;494112;241;28639;-69
2022/09/01 00:07:30;;;;;;;5.07;4.67;;;14.40;99.90;;;;;;493795;241;28875;-68
2022/09/01 00:09:31;;;;;;;4.13;3.83;;;14.40;99.90;;;;;;494040;241;28881;-70
2022/09/01 00:11:32;;;;;;;5.40;4.90;;;14.50;99.90;;;;;;494055;241;28535;-71
2022/09/01 00:13:34;;;;;;;5.20;4.80;;;14.50;99.90;;;;;;494056;241;29352;-69
2022/09/01 00:15:35;;;;;;;4.97;4.57;;;14.50;99.90;;;;;;494047;241;29320;-69
2022/09/01 00:17:36;;;;;;;4.80;4.40;;;14.60;99.90;;;;;;494021;241;29067;-68
2022/09/01 00:19:38;;;;;;;4.90;4.50;;;14.60;99.90;;;;;;494044;241;28813;-68
2022/09/01 00:21:39;;;;;;;5.10;4.70;;;14.60;99.90;;;;;;494013;241;28844;-73
2022/09/01 00:23:40;;;;;;;5.73;5.07;;;14.70;99.90;;;;;;494080;241;28939;-68
2022/09/01 00:25:41;;;;;;;5.80;5.30;;;14.60;99.90;;;;;;494046;241;28825;-71
2022/09/01 00:27:42;;;;;;;5.10;4.70;;;14.60;99.90;;;;;;493984;241;28841;-68
2022/09/01 00:29:44;;;;;;;5.10;4.70;;;14.70;99.90;;;;;;493924;241;28423;-69
2022/09/01 00:31:45;;;;;;;4.90;4.50;;;14.70;99.90;;;;;;494040;241;28635;-71
2022/09/01 00:33:46;;;;;;;5.07;4.67;;;14.70;99.90;;;;;;494008;241;28573;-69
2022/09/01 00:35:47;;;;;;;4.57;4.17;;;14.70;99.90;;;;;;494059;241;28832;-70
2022/09/01 00:37:49;;;;;;;4.87;4.47;;;14.70;99.90;;;;;;493981;241;29399;-68
2022/09/01 00:39:50;;;;;;;4.20;3.90;;;14.70;99.90;;;;;;494062;241;29461;-69
2022/09/01 00:41:51;;;;;;;4.93;4.23;;;14.70;99.90;;;;;;494071;241;29288;-71
2022/09/01 00:43:53;;;;;;;4.50;4.10;;;14.70;99.90;;;;;;494071;241;29410;-68
2022/09/01 00:45:56;;;;;;;4.13;3.73;;;14.80;99.90;;;;;;494057;241;28850;-68
2022/09/01 00:47:55;;;;;;;4.47;4.17;;;14.80;99.90;;;;;;493819;239;28861;-68
2022/09/01 00:49:56;;;;;;;4.30;4.00;;;14.80;99.90;;;;;;494075;241;28681;-68
2022/09/01 00:51:58;;;;;;;4.37;3.97;;;14.80;99.90;;;;;;494080;241;28825;-72
2022/09/01 00:53:59;;;;;;;4.00;3.70;;;14.80;99.90;;;;;;493918;241;28903;-68
2022/09/01 00:56:00;;;;;;;4.50;4.20;;;14.50;99.90;;;;;;494022;241;28925;-69
2022/09/01 00:58:02;;;;;;;4.60;4.20;;;14.40;99.90;;;;;;494054;241;28804;-69
2022/09/01 01:00:03;;;;;;;4.33;4.03;;;14.40;99.90;;;;;;494069;241;28923;-68
2022/09/01 01:02:04;;;;;;;4.43;4.03;;;14.30;99.90;;;;;;493917;241;29458;-68
2022/09/01 01:04:05;;;;;;;4.20;3.90;;;14.40;99.90;;;;;;494033;241;29245;-69
2022/09/01 01:06:07;;;;;;;4.27;3.97;;;14.40;99.90;;;;;;494051;241;29309;-71
2022/09/01 01:08:08;;;;;;;4.57;4.27;;;14.50;99.90;;;;;;494117;241;28946;-68
2022/09/01 01:10:10;;;;;;;3.90;3.60;;;14.50;99.90;;;;;;494117;241;28823;-69
2022/09/01 01:12:16;;;;;;;4.03;3.73;;;14.40;99.90;;;;;;493978;241;28809;-68
2022/09/01 01:14:14;;;;;;;4.13;3.83;;;14.30;99.90;;;;;;493773;241;28846;-69
2022/09/01 01:16:15;;;;;;;4.17;3.87;;;14.30;99.90;;;;;;494030;241;28964;-68
2022/09/01 01:18:16;;;;;;;4.33;3.83;;;14.20;99.90;;;;;;494120;241;28829;-71
2022/09/01 01:24:57;;;;;;;4.87;4.47;;;13.90;99.90;;;;;;494093;241;28924;-69
2022/09/01 01:27:02;;;;;;;4.40;4.10;;;13.70;99.90;;;;;;493968;241;29152;-68
2022/09/01 01:29:02;;;;;;;4.90;4.50;;;13.60;99.90;;;;;;493916;241;28887;-68
2022/09/01 01:31:04;;;;;;;4.70;4.30;;;13.50;99.90;;;;;;494062;241;29125;-69
2022/09/01 01:33:05;;;;;;;4.77;4.37;;;13.60;99.90;;;;;;494005;241;29405;-69
2022/09/01 01:35:06;;;;;;;4.30;4.00;;;13.60;99.90;;;;;;493860;241;29281;-68
2022/09/01 01:37:09;;;;;;;4.40;4.10;;;13.70;99.90;;;;;;493932;241;29382;-71
2022/09/01 01:39:08;;;;;;;4.90;4.50;;;13.60;99.90;;;;;;493815;241;28553;-68
2022/09/01 01:41:10;;;;;;;4.63;4.20;;;13.60;99.90;;;;;;493985;241;28587;-68
2022/09/01 01:43:18;;;;;;;5.17;4.67;;;13.60;99.90;;;;;;494051;241;28493;-71
2022/09/01 01:45:15;;;;;;;4.60;4.30;;;13.60;99.90;;;;;;493444;241;28502;-69
2022/09/01 01:47:14;;;;;;;5.00;4.50;;;13.60;99.90;;;;;;493696;241;28657;-69
2022/09/01 01:49:19;;;;;;;5.00;4.60;;;13.70;99.90;;;;;;493999;241;28816;-68
2022/09/01 01:51:16;;;;;;;4.80;4.40;;;13.80;99.90;;;;;;493708;241;28314;-68
2022/09/01 01:53:18;;;;;;;5.47;4.97;;;13.80;99.90;;;;;;494095;241;28426;-71
2022/09/01 01:55:18;;;;;;;6.43;4.93;;;13.90;99.90;;;;;;494071;241;28622;-69
2022/09/01 01:57:20;;;;;;;4.67;4.27;;;14.00;99.90;;;;;;494027;241;28877;-69
2022/09/01 01:59:23;;;;;;;4.67;4.27;;;14.00;99.90;;;;;;494076;241;29019;-68
2022/09/01 02:01:23;;;;;;;4.43;4.13;;;14.00;99.90;;;;;;493911;241;29007;-68
2022/09/01 02:03:23;;;;;;;5.60;5.10;;;14.10;99.90;;;;;;493992;239;28621;-73
2022/09/01 02:05:25;;;;;;;5.37;4.73;;;14.10;99.90;;;;;;494092;241;28443;-69
2022/09/01 02:07:26;;;;;;;4.80;4.40;;;14.20;99.90;;;;;;494027;241;28556;-70
2022/09/01 02:09:27;;;;;;;4.83;4.43;;;14.10;99.90;;;;;;494031;241;28472;-68
2022/09/01 02:11:28;;;;;;;4.80;4.40;;;14.00;99.90;;;;;;494053;241;28571;-68
2022/09/01 02:13:30;;;;;;;4.73;4.33;;;13.80;99.90;;;;;;494089;241;28417;-70
2022/09/01 02:15:33;;;;;;;5.20;4.73;;;13.70;99.90;;;;;;494056;241;28813;-69
2022/09/01 02:17:32;;;;;;;5.57;5.07;;;13.80;99.90;;;;;;493867;241;29034;-69
2022/09/01 02:19:37;;;;;;;5.20;4.80;;;13.90;99.90;;;;;;494106;241;29267;-68
2022/09/01 02:21:35;;;;;;;4.90;4.50;;;14.10;99.90;;;;;;493551;241;28902;-68
2022/09/01 02:23:36;;;;;;;5.23;4.80;;;14.00;99.90;;;;;;494030;241;29030;-68
2022/09/01 02:25:37;;;;;;;5.10;4.70;;;14.00;99.90;;;;;;494044;241;28936;-68
2022/09/01 02:27:38;;;;;;;4.97;4.57;;;13.70;99.90;;;;;;494029;241;28536;-69
2022/09/01 02:29:40;;;;;;;5.43;5.03;;;13.60;99.90;;;;;;494078;241;28796;-68
2022/09/01 02:31:41;;;;;;;5.00;4.60;;;13.50;99.90;;;;;;494066;241;28845;-68
2022/09/01 02:33:46;;;;;;;5.10;4.57;;;13.40;99.90;;;;;;493891;241;28751;-72
2022/09/01 02:35:46;;;;;;;5.53;5.10;;;13.30;99.90;;;;;;494005;241;28985;-72
2022/09/01 02:37:54;;;;;;;4.97;4.57;;;13.20;99.90;;;;;;493971;241;28279;-68
2022/09/01 02:39:49;;;;;;;4.90;4.50;;;13.10;99.90;;;;;;493560;241;28298;-69
2022/09/01 02:41:50;;;;;;;4.93;4.53;;;13.10;99.90;;;;;;494095;241;28199;-68
2022/09/01 02:43:52;;;;;;;4.73;4.33;;;13.20;99.90;;;;;;494083;241;28260;-68
2022/09/01 02:45:54;;;;;;;4.47;4.17;;;13.20;99.90;;;;;;493987;241;28431;-71
2022/09/01 02:47:56;;;;;;;4.93;4.30;;;13.20;99.90;;;;;;493887;241;28341;-68
2022/09/01 02:49:56;;;;;;;4.70;4.33;;;13.20;99.90;;;;;;493925;241;28306;-69
2022/09/01 02:51:58;;;;;;;5.03;4.63;;;13.30;99.90;;;;;;494012;241;28162;-69
2022/09/01 02:53:57;;;;;;;4.70;4.33;;;13.40;99.90;;;;;;493963;241;28187;-71
2022/09/01 02:55:59;;;;;;;4.67;4.27;;;13.40;99.90;;;;;;494094;241;28725;-78
2022/09/01 02:58:00;;;;;;;4.83;4.40;;;13.40;99.90;;;;;;494074;241;28819;-69
2022/09/01 03:00:01;;;;;;;6.13;4.63;;;13.50;99.90;;;;;;494094;241;28818;-69
2022/09/01 03:02:03;;;;;;;4.63;4.27;;;13.60;99.90;;;;;;493988;241;28374;-68
2022/09/01 03:04:09;;;;;;;4.97;4.57;;;13.60;99.90;;;;;;493365;241;28304;-68
2022/09/01 03:06:08;;;;;;;5.20;4.80;;;13.60;99.90;;;;;;492693;241;28546;-69
2022/09/01 03:08:09;;;;;;;4.47;4.10;;;13.50;99.90;;;;;;493734;241;28295;-69
2022/09/01 03:10:10;;;;;;;5.00;4.60;;;13.50;99.90;;;;;;494002;241;28388;-68
2022/09/01 03:12:11;;;;;;;4.60;4.20;;;13.40;99.90;;;;;;494069;241;28191;-69
2022/09/01 03:14:13;;;;;;;4.60;4.20;;;13.40;99.90;;;;;;494055;241;28464;-68
2022/09/01 03:16:14;;;;;;;4.97;4.57;;;13.30;99.90;;;;;;493927;241;28214;-68
2022/09/01 03:18:17;;;;;;;4.30;4.00;;;13.20;99.90;;;;;;494014;241;28728;-71
2022/09/01 03:20:18;;;;;;;5.60;4.27;;;13.20;99.90;;;;;;493981;241;28935;-69
2022/09/01 03:22:18;;;;;;;4.37;4.07;;;13.10;99.90;;;;;;493997;241;28729;-68
2022/09/01 03:24:20;;;;;;;4.47;4.07;;;13.00;99.90;;;;;;494044;241;28200;-68
2022/09/01 03:26:21;;;;;;;5.00;4.60;;;13.00;99.90;;;;;;493879;241;28170;-69
2022/09/01 03:28:21;;;;;;;4.50;4.20;;;13.00;99.90;;;;;;494063;241;28265;-70
2022/09/01 03:30:25;;;;;;;4.60;4.20;;;;;;;;;;494086;241;28254;-70
2022/09/01 03:32:25;;;;;;;4.67;4.27;;;12.80;99.90;;;;;;494041;237;27143;-68
2022/09/01 03:34:27;;;;;;;4.70;4.30;;;12.70;99.90;;;;;;494093;241;28657;-68
2022/09/01 03:36:28;;;;;;;4.37;3.97;;;12.70;99.90;;;;;;493991;241;28792;-73
2022/09/01 03:38:30;;;;;;;4.93;4.53;;;12.70;99.90;;;;;;494118;241;28116;-70
2022/09/01 03:40:31;;;;;;;4.77;4.37;;;12.70;99.90;;;;;;493990;241;28109;-69
2022/09/01 03:42:33;;;;;;;4.83;4.43;;;;;;;;;;494073;241;28064;-68
2022/09/01 03:44:34;;;;;;;4.53;4.20;;;12.70;99.90;;;;;;494111;241;27107;-72
2022/09/01 03:46:35;;;;;;;4.60;4.30;;;12.70;99.90;;;;;;493999;241;28662;-69
2022/09/01 03:48:37;;;;;;;4.60;4.20;;;12.60;99.90;;;;;;494121;241;28691;-69
2022/09/01 03:50:44;;;;;;;4.40;4.03;;;12.60;99.90;;;;;;494050;241;28710;-68
2022/09/01 03:52:40;;;;;;;4.50;4.20;;;12.60;99.90;;;;;;493568;241;29189;-68
2022/09/01 03:54:40;;;;;;;5.00;4.60;;;12.60;99.90;;;;;;494038;241;28283;-72
2022/09/01 03:56:44;;;;;;;4.57;4.17;;;12.60;99.90;;;;;;493988;241;28349;-68
2022/09/01 03:58:45;;;;;;;4.33;4.03;;;12.50;99.90;;;;;;493817;241;28346;-70
2022/09/01 04:00:47;;;;;;;4.57;4.27;;;12.60;99.90;;;;;;494067;241;28357;-69
2022/09/01 04:02:49;;;;;;;4.20;3.90;;;12.50;99.90;;;;;;494068;241;28676;-68
2022/09/01 04:04:49;;;;;;;4.87;4.47;;;12.60;99.90;;;;;;493979;241;28658;-68
2022/09/01 04:06:51;;;;;;;4.87;4.47;;;12.60;99.90;;;;;;493937;241;28675;-70
2022/09/01 04:09:01;;;;;;;4.43;4.03;;;;;;;;;;494082;241;28618;-69
2022/09/01 04:10:54;;;;;;;4.73;3.83;;;12.60;99.90;;;;;;493442;241;26476;-68
2022/09/01 04:12:58;;;;;;;4.50;4.20;;;12.60;99.90;;;;;;494033;237;28163;-69
2022/09/01 04:14:57;;;;;;;4.80;4.40;;;12.80;99.90;;;;;;493870;241;28277;-71
2022/09/01 04:19:24;;;;;;;5.40;4.60;;;12.90;99.90;;;;;;494070;241;28634;-69
2022/09/01 04:21:22;;;;;;;4.60;4.30;;;13.10;99.90;;;;;;493837;241;28379;-68
2022/09/01 04:23:28;;;;;;;5.80;4.40;;;13.20;99.90;;;;;;494053;241;28334;-69
2022/09/01 04:25:27;;;;;;;5.27;4.77;;;13.30;99.90;;;;;;493880;241;28701;-68
2022/09/01 04:27:28;;;;;;;5.13;4.63;;;13.40;99.90;;;;;;493970;241;28268;-68
2022/09/01 04:29:30;;;;;;;9.60;4.60;;;13.30;99.90;;;;;;494055;241;28286;-68
2022/09/01 04:31:31;;;;;;;6.20;4.50;;;13.30;99.90;;;;;;493972;241;28144;-71
2022/09/01 04:33:45;;;;;;;4.70;4.30;;;13.40;99.90;;;;;;494096;241;28163;-69
2022/09/01 04:35:43;;;;;;;5.10;4.70;;;13.40;99.90;;;;;;493781;241;28870;-68
2022/09/01 04:37:45;;;;;;;5.27;4.60;;;13.40;99.90;;;;;;493949;241;28503;-70
2022/09/01 04:39:47;;;;;;;5.10;4.60;;;13.40;99.90;;;;;;494066;241;28214;-69
2022/09/01 04:41:48;;;;;;;5.03;4.53;;;13.50;99.90;;;;;;493933;241;28177;-68
2022/09/01 04:43:48;;;;;;;4.83;4.40;;;13.30;99.90;;;;;;493990;241;28483;-70
2022/09/01 04:45:50;;;;;;;4.40;4.00;;;13.10;99.90;;;;;;494091;241;28289;-69
2022/09/01 04:47:51;;;;;;;4.60;4.20;;;13.00;99.90;;;;;;493944;241;28319;-69
2022/09/01 04:49:51;;;;;;;4.60;4.20;;;12.90;99.90;;;;;;494080;241;28201;-72
2022/09/01 04:51:53;;;;;;;5.43;4.20;;;12.90;99.90;;;;;;494026;241;28170;-68
2022/09/01 04:53:54;;;;;;;4.97;4.00;;;13.10;99.90;;;;;;494076;241;28275;-69
2022/09/01 04:55:55;;;;;;;4.00;3.70;;;13.00;99.90;;;;;;494089;241;28670;-68
2022/09/01 04:57:56;;;;;;;7.83;4.70;;;12.90;99.90;;;;;;494036;241;28942;-68
2022/09/01 04:59:58;;;;;;;4.80;4.40;;;13.10;99.90;;;;;;494063;241;28761;-73
2022/09/01 05:01:59;;;;;;;6.50;4.67;;;13.10;99.90;;;;;;494127;241;28230;-69
2022/09/01 05:04:00;;;;;;;4.53;4.13;;;13.10;99.90;;;;;;494099;241;28275;-70
2022/09/01 05:06:02;;;;;;;4.40;4.00;;;13.20;99.90;;;;;;494065;241;28154;-71
2022/09/01 05:08:03;;;;;;;4.70;4.30;;;13.20;99.90;;;;;;494033;241;28178;-69
2022/09/01 05:10:04;;;;;;;4.73;4.20;;;13.30;99.90;;;;;;494115;241;28329;-67
2022/09/01 05:12:11;;;;;;;4.77;4.27;;;13.40;99.90;;;;;;494098;241;28294;-69
2022/09/01 05:14:12;;;;;;;6.37;4.13;;;13.40;99.90;;;;;;494114;241;28868;-70
2022/09/01 05:16:14;;;;;;;5.70;4.30;;;13.40;99.90;;;;;;494032;241;28194;-68
2022/09/01 05:18:15;;;;;;;4.00;3.70;;;13.50;99.90;;;;;;494109;241;28286;-69
2022/09/01 05:20:19;;;;;;;5.00;4.50;;;13.50;99.90;;;;;;494099;241;28394;-72
2022/09/01 05:22:20;;;;;;;5.47;4.20;;;13.60;99.90;;;;;;493894;241;28489;-68
2022/09/01 05:24:20;;;;;;;4.60;4.20;;;13.60;99.90;;;;;;493857;241;28509;-70
2022/09/01 05:26:20;;;;;;;5.00;4.50;;;13.60;99.90;;;;;;493915;241;28313;-69
2022/09/01 05:28:25;;;;;;;4.10;3.80;;;13.60;99.90;;;;;;494055;241;28497;-68
2022/09/01 05:30:27;;;;;;;4.97;4.47;;;13.70;99.90;;;;;;493778;241;28298;-73
2022/09/01 05:32:26;;;;;;;5.00;4.27;;;13.60;99.90;;;;;;493711;239;28277;-69
2022/09/01 05:34:30;;;;;;;5.30;4.80;;;13.50;99.90;;;;;;493941;241;29010;-70
2022/09/01 05:36:32;;;;;;;5.53;4.93;;;13.50;99.90;;;;;;493839;241;28857;-71
2022/09/01 05:38:32;;;;;;;5.67;5.03;;;13.60;99.90;;;;;;493816;241;29101;-68
2022/09/01 05:40:36;;;;;;;7.90;5.13;;;13.60;99.90;;;;;;493919;241;28542;-69
2022/09/01 05:42:33;;;;;;;5.50;4.97;;;13.60;99.90;;;;;;493761;241;28312;-68
2022/09/01 05:44:34;;;;;;;5.13;4.63;;;13.70;99.90;;;;;;494109;241;28491;-69
2022/09/01 05:46:36;;;;;;;5.60;5.10;;;13.70;99.90;;;;;;494018;241;28427;-71
2022/09/01 05:48:38;;;;;;;5.70;5.07;;;13.80;99.90;;;;;;494049;241;28405;-68
2022/09/01 05:50:39;;;;;;;6.90;5.30;;;13.80;99.90;;;;;;493963;239;28539;-69
2022/09/01 05:52:39;;;;;;;5.60;5.10;;;13.80;99.90;;;;;;493968;241;28214;-68
2022/09/01 05:54:40;;;;;;;5.43;4.80;;;13.80;99.90;;;;;;494118;241;28406;-68
2022/09/01 05:56:42;;;;;;;5.40;4.90;;;13.80;99.90;;;;;;493990;241;28969;-70
2022/09/01 05:58:43;;;;;;;6.23;5.07;;;13.80;99.90;;;;;;494064;241;28929;-69
2022/09/01 06:00:46;;;;;;;5.27;4.77;;;13.80;99.90;;;;;;494066;241;29086;-68
2022/09/01 06:02:45;;;;;;;5.47;4.97;;;13.90;99.90;;;;;;493900;241;29240;-68
2022/09/01 06:04:46;;;;;;;5.10;4.23;;;13.90;99.90;;;;;;494057;241;28570;-68
2022/09/01 06:06:48;;;;;;;6.43;5.10;;;13.90;99.90;;;;;;494025;241;28410;-71
2022/09/01 06:08:49;;;;;;;5.40;4.90;;;14.00;99.90;;;;;;494088;241;28863;-68
2022/09/01 06:10:50;;;;;;;5.83;4.60;;;14.00;99.90;;;;;;494043;241;28800;-70
2022/09/01 06:12:52;;;;;;;5.67;5.17;;;14.00;99.90;;;;;;494109;241;28386;-69
2022/09/01 06:14:53;;;;;;;5.37;4.77;;;14.00;99.90;;;;;;494074;241;28470;-69
2022/09/01 06:16:55;;;;;;;5.40;4.90;;;14.00;99.90;;;;;;494026;241;28834;-70
2022/09/01 06:18:56;;;;;;;4.77;4.37;;;14.10;99.90;;;;;;494061;241;28848;-69
2022/09/01 06:20:57;;;;;;;7.33;5.10;;;14.10;99.90;;;;;;494069;241;28603;-69
2022/09/01 06:22:58;;;;;;;6.13;4.90;;;14.20;99.90;;;;;;494069;241;29700;-68
2022/09/01 06:24:59;;;;;;;5.73;5.23;;;14.20;99.90;;;;;;494015;241;29303;-69
2022/09/01 06:27:00;;;;;;;7.00;4.60;;;14.20;99.90;;;;;;494069;241;29711;-72
2022/09/01 06:29:02;;;;;;;6.80;5.00;;;14.20;99.90;;;;;;493825;241;28801;-68
2022/09/01 06:31:03;;;;;;;5.57;4.97;;;14.20;99.90;;;;;;494093;241;28612;-70
2022/09/01 06:33:08;;;;;;;5.23;4.20;;;14.30;99.90;;;;;;494080;241;28904;-69
2022/09/01 06:35:08;;;;;;;5.90;5.30;;;14.40;99.90;;;;;;493804;241;28947;-69
2022/09/01 06:37:06;;;;;;;5.20;4.70;;;14.40;99.90;;;;;;493849;241;28935;-73
2022/09/01 06:39:08;;;;;;;6.17;5.30;;;14.40;99.90;;;;;;494044;241;28492;-69
2022/09/01 06:41:11;;;;;;;7.10;4.90;;;14.40;99.90;;;;;;494100;241;28929;-69
2022/09/01 06:43:11;;;;;;;5.43;5.00;;;14.50;99.90;;;;;;493938;241;28892;-68
2022/09/01 06:45:11;;;;;;;4.90;4.33;;;14.60;99.90;;;;;;494016;241;28864;-69
2022/09/01 06:47:14;;;;;;;4.93;4.30;;;14.70;99.90;;;;;;494047;241;29408;-69
2022/09/01 06:49:14;;;;;;;5.03;4.57;;;14.70;99.90;;;;;;494027;241;29273;-68
2022/09/01 06:51:16;;;;;;;6.67;5.30;;;14.80;99.90;;;;;;494070;241;29407;-71
2022/09/01 06:53:17;;;;;;;5.47;4.73;;;14.80;99.90;;;;;;493858;241;29421;-68
2022/09/01 06:55:18;;;;;;;5.30;4.90;;;14.90;99.90;;;;;;494008;241;28840;-69
2022/09/01 06:57:21;;;;;;;5.53;4.37;;;15.00;99.90;;;;;;494032;241;28852;-68
2022/09/01 06:59:20;;;;;;;6.30;5.20;;;15.00;99.90;;;;;;493974;241;28911;-70
2022/09/01 07:01:22;;;;;;;5.97;4.90;;;15.00;99.90;;;;;;494066;241;28920;-71
2022/09/01 07:03:23;;;;;;;5.67;5.13;;;15.10;99.90;;;;;;493999;241;28818;-69
2022/09/01 07:05:24;;;;;;;6.70;4.83;;;15.20;99.90;;;;;;494064;241;28845;-70
2022/09/01 07:07:26;;;;;;;5.30;4.83;;;15.30;99.90;;;;;;494025;241;28891;-68
2022/09/01 07:09:28;;;;;;;6.00;5.40;;;15.40;99.90;;;;;;493977;241;28863;-68
2022/09/01 07:11:28;;;;;;;5.63;5.13;;;15.50;99.90;;;;;;494020;239;28902;-70
2022/09/01 07:13:29;;;;;;;5.43;4.43;;;15.60;99.90;;;;;;494083;241;29328;-68
2022/09/01 07:15:31;;;;;;;7.27;5.30;;;15.70;99.90;;;;;;494062;241;29784;-70
2022/09/01 07:17:31;;;;;;;6.00;4.77;;;15.80;99.90;;;;;;493988;241;30048;-69
2022/09/01 07:19:34;;;;;;;5.43;4.93;;;15.80;99.90;;;;;;494075;241;28809;-69
2022/09/01 07:21:34;;;;;;;8.27;5.50;;;15.90;99.90;;;;;;494009;241;28860;-70
2022/09/01 07:23:37;;;;;;;6.50;5.63;;;15.90;99.90;;;;;;494073;241;28788;-68
2022/09/01 07:25:37;;;;;;;6.50;5.53;;;15.90;99.90;;;;;;493922;241;28821;-69
2022/09/01 07:27:38;;;;;;;9.03;6.90;;;16.00;99.90;;;;;;493978;241;28886;-69
2022/09/01 07:29:39;;;;;;;10.00;8.30;;;16.00;99.90;;;;;;494068;241;28805;-69
2022/09/01 07:31:41;;;;;;;8.13;6.70;;;16.10;99.90;;;;;;494092;241;29293;-71
2022/09/01 07:33:46;;;;;;;8.00;7.20;;;16.20;99.90;;;;;;494081;241;28924;-69
2022/09/01 07:35:43;;;;;;;7.10;6.40;;;16.20;99.90;;;;;;493436;241;29816;-69
2022/09/01 07:37:44;;;;;;;9.40;7.77;;;16.40;99.90;;;;;;494017;241;29283;-69
2022/09/01 07:39:45;;;;;;;10.33;8.47;;;16.40;99.90;;;;;;494083;241;29260;-69
2022/09/01 07:41:47;;;;;;;8.97;8.07;;;16.30;99.90;;;;;;494093;241;29533;-73
2022/09/01 07:43:51;;;;;;;10.40;8.27;;;16.30;99.90;;;;;;494108;241;28797;-69
2022/09/01 07:45:49;;;;;;;8.00;7.20;;;16.50;99.90;;;;;;493813;241;28891;-71
2022/09/01 07:47:50;;;;;;;8.10;7.30;;;16.60;99.90;;;;;;494044;241;28827;-69
2022/09/01 07:49:51;;;;;;;8.20;7.10;;;16.70;99.90;;;;;;494054;241;28811;-70
2022/09/01 07:51:53;;;;;;;8.47;6.63;;;16.80;99.90;;;;;;494098;241;28844;-72
2022/09/01 07:53:54;;;;;;;7.53;6.60;;;16.90;99.90;;;;;;494056;241;28804;-69
2022/09/01 07:55:55;;;;;;;8.17;7.37;;;17.00;99.90;;;;;;494062;241;28914;-70
2022/09/01 07:57:57;;;;;;;7.03;6.43;;;17.00;99.90;;;;;;494022;241;29247;-69
2022/09/01 07:59:58;;;;;;;8.70;7.63;;;17.20;99.90;;;;;;494035;241;29315;-70
2022/09/01 08:01:59;;;;;;;8.47;7.67;;;17.10;99.90;;;;;;494071;241;29439;-72
2022/09/01 08:04:03;;;;;;;8.57;7.20;;;16.90;99.90;;;;;;494098;241;29727;-69
2022/09/01 08:06:05;;;;;;;7.03;6.33;;;17.00;99.90;;;;;;494062;241;28821;-70
2022/09/01 08:08:05;;;;;;;8.83;7.83;;;17.10;99.90;;;;;;494060;241;28961;-68
2022/09/01 08:10:07;;;;;;;9.10;7.90;;;17.00;99.90;;;;;;494097;241;28804;-69
2022/09/01 08:12:08;;;;;;;9.63;8.30;;;16.90;99.90;;;;;;494094;241;28824;-69
2022/09/01 08:14:09;;;;;;;11.80;8.17;;;17.00;99.90;;;;;;493989;241;28952;-69
2022/09/01 08:16:11;;;;;;;7.03;6.43;;;16.90;99.90;;;;;;494044;241;28858;-69
2022/09/01 08:18:12;;;;;;;8.00;7.27;;;17.10;99.90;;;;;;494067;241;28867;-71
2022/09/01 08:20:13;;;;;;;9.13;8.20;;;17.10;99.90;;;;;;494101;241;28790;-69
2022/09/01 08:22:14;;;;;;;12.07;9.30;;;16.90;99.90;;;;;;494101;241;29373;-69
2022/09/01 08:24:15;;;;;;;10.07;8.30;;;16.70;99.90;;;;;;494086;241;30057;-69
2022/09/01 08:26:17;;;;;;;9.13;8.10;;;16.80;99.90;;;;;;494052;241;29378;-69
2022/09/01 08:28:18;;;;;;;9.57;7.70;;;17.10;99.90;;;;;;494107;241;28859;-71
2022/09/01 08:30:19;;;;;;;10.63;8.10;;;17.00;99.90;;;;;;494099;241;28824;-69
2022/09/01 08:32:21;;;;;;;8.30;7.20;;;16.90;99.90;;;;;;494096;241;28858;-70
2022/09/01 08:34:22;;;;;;;8.97;8.10;;;17.20;99.90;;;;;;494103;241;28846;-69
2022/09/01 08:36:23;;;;;;;10.10;7.53;;;17.40;99.90;;;;;;494027;241;28949;-69
2022/09/01 08:38:24;;;;;;;7.60;6.90;;;17.30;99.90;;;;;;494088;241;28925;-72
2022/09/01 08:40:25;;;;;;;8.40;7.50;;;17.30;99.90;;;;;;494079;241;28820;-69
2022/09/01 08:42:27;;;;;;;7.20;6.50;;;17.60;99.90;;;;;;494090;241;28907;-70
2022/09/01 08:44:28;;;;;;;7.80;6.43;;;17.70;99.90;;;;;;494058;241;29985;-69
2022/09/01 08:46:29;;;;;;;7.93;7.13;;;17.90;99.90;;;;;;494016;241;29401;-69
2022/09/01 08:48:30;;;;;;;7.10;6.17;;;17.70;99.90;;;;;;494022;241;29365;-73
2022/09/01 08:50:32;;;;;;;7.00;6.30;;;17.80;99.90;;;;;;494006;241;28818;-69
2022/09/01 08:52:33;;;;;;;6.37;5.77;;;17.90;99.90;;;;;;494005;239;28862;-70
2022/09/01 08:54:35;;;;;;;6.23;5.63;;;18.00;99.90;;;;;;494076;241;28789;-69
2022/09/01 08:56:36;;;;;;;5.77;5.27;;;18.20;99.90;;;;;;494050;241;28884;-70
2022/09/01 08:58:37;;;;;;;5.50;5.00;;;18.30;99.90;;;;;;493966;241;28849;-70
2022/09/01 09:00:41;;;;;;;5.10;4.60;;;18.40;99.90;;;;;;494078;241;28803;-69
2022/09/01 09:02:39;;;;;;;6.17;5.33;;;18.40;99.90;;;;;;493830;241;28845;-70
2022/09/01 09:04:40;;;;;;;7.00;5.20;;;18.50;99.90;;;;;;494118;241;28821;-69
2022/09/01 09:06:42;;;;;;;5.60;5.07;;;18.50;99.90;;;;;;494050;241;28931;-69
2022/09/01 09:08:43;;;;;;;7.90;5.80;;;18.40;99.90;;;;;;494091;241;29401;-72
2022/09/01 09:10:46;;;;;;;5.47;4.97;;;18.30;99.90;;;;;;494083;241;29245;-69
2022/09/01 09:12:46;;;;;;;7.07;5.60;;;18.40;99.90;;;;;;493953;241;29360;-70
2022/09/01 09:14:47;;;;;;;6.37;5.67;;;18.40;99.90;;;;;;494048;241;29320;-69
2022/09/01 09:16:48;;;;;;;5.50;5.00;;;18.30;99.90;;;;;;494002;241;28891;-69
2022/09/01 09:18:49;;;;;;;9.20;6.13;;;18.30;99.90;;;;;;494106;241;28937;-73
2022/09/01 09:20:51;;;;;;;7.50;5.50;;;18.10;99.90;;;;;;494067;241;28830;-69
2022/09/01 09:22:52;;;;;;;5.60;5.10;;;18.30;99.90;;;;;;494057;241;28915;-70
2022/09/01 09:24:54;;;;;;;5.57;5.07;;;18.30;99.90;;;;;;494083;241;28812;-69
2022/09/01 09:26:54;;;;;;;5.20;4.77;;;18.50;99.90;;;;;;493988;241;28897;-69
2022/09/01 09:28:56;;;;;;;5.12;4.72;;;18.70;99.90;;;;;;491581;241;40046;-71
2022/09/01 09:30:57;;;;;;;5.53;4.77;;;18.60;99.90;;;;;;494077;241;28793;-70
2022/09/01 09:33:03;;;;;;;4.90;4.50;;;18.30;99.90;;;;;;494046;241;29262;-70
2022/09/01 09:34:59;;;;;;;4.50;4.10;;;18.50;99.90;;;;;;493633;241;30018;-70
2022/09/01 09:37:01;;;;;;;4.60;4.20;;;18.60;99.90;;;;;;494025;241;29424;-69
2022/09/01 09:39:02;;;;;;;5.27;4.77;;;18.80;99.90;;;;;;493972;241;29399;-73
2022/09/01 09:41:03;;;;;;;5.03;4.63;;;18.90;99.90;;;;;;493996;240;28868;-70
2022/09/01 09:43:04;;;;;;;4.73;4.33;;;19.30;99.90;;;;;;494003;241;28825;-70
2022/09/01 09:45:06;;;;;;;4.67;4.30;;;19.60;99.90;;;;;;494070;241;28834;-70
2022/09/01 09:47:07;;;;;;;5.27;4.30;;;19.70;99.90;;;;;;494026;241;28793;-70
2022/09/01 09:49:09;;;;;;;4.93;4.53;;;19.80;99.90;;;;;;494045;241;28824;-72
2022/09/01 09:51:09;;;;;;;6.37;5.00;;;19.80;99.90;;;;;;494051;241;28796;-69
2022/09/01 09:53:11;;;;;;;4.50;4.10;;;19.80;99.90;;;;;;494092;241;28946;-70
2022/09/01 09:55:12;;;;;;;4.50;4.10;;;19.90;99.90;;;;;;494072;241;28833;-72
2022/09/01 09:57:13;;;;;;;5.03;4.53;;;20.00;99.90;;;;;;494032;241;28852;-70
2022/09/01 09:59:14;;;;;;;5.97;4.77;;;20.00;99.90;;;;;;494041;241;29360;-70
2022/09/01 10:01:16;;;;;;;5.30;4.77;;;19.80;99.90;;;;;;494093;241;29351;-70
2022/09/01 10:03:17;;;;;;;4.73;4.30;;;20.00;99.90;;;;;;494073;241;29418;-69
2022/09/01 10:05:18;;;;;;;5.87;5.37;;;20.20;99.90;;;;;;494064;241;28974;-69
2022/09/01 10:07:19;;;;;;;6.03;5.43;;;19.90;99.90;;;;;;494031;241;28801;-70
2022/09/01 10:09:21;;;;;;;7.10;5.03;;;19.50;99.90;;;;;;494104;241;28873;-71
2022/09/01 10:11:22;;;;;;;4.90;4.50;;;19.10;99.90;;;;;;494038;241;28931;-69
2022/09/01 10:13:23;;;;;;;5.50;5.00;;;19.00;99.90;;;;;;493483;241;29269;-70
2022/09/01 10:15:24;;;;;;;5.10;4.70;;;19.10;99.90;;;;;;493240;241;29175;-72
2022/09/01 10:17:26;;;;;;;6.03;5.07;;;19.10;99.90;;;;;;493829;241;28831;-69
2022/09/01 10:19:28;;;;;;;4.90;4.50;;;19.30;99.90;;;;;;494077;241;28927;-71
2022/09/01 10:21:28;;;;;;;4.83;4.43;;;19.40;99.90;;;;;;494035;241;28794;-69
2022/09/01 10:23:29;;;;;;;5.93;4.80;;;19.50;99.90;;;;;;494076;241;29493;-70
2022/09/01 10:25:32;;;;;;;5.30;4.90;;;19.60;99.90;;;;;;494100;241;29330;-72
2022/09/01 10:27:32;;;;;;;5.50;5.00;;;19.60;99.90;;;;;;494017;237;29263;-70
2022/09/01 10:29:33;;;;;;;5.27;4.87;;;19.80;99.90;;;;;;494073;241;28845;-70
2022/09/01 10:31:34;;;;;;;5.70;5.00;;;20.10;99.90;;;;;;494065;241;28785;-70
2022/09/01 10:33:36;;;;;;;4.73;4.33;;;19.50;99.90;;;;;;494030;241;28796;-69
2022/09/01 10:35:37;;;;;;;6.70;4.90;;;19.70;99.90;;;;;;494066;241;28919;-73
2022/09/01 10:37:38;;;;;;;5.20;4.67;;;19.60;99.90;;;;;;494009;241;28896;-70
2022/09/01 10:39:39;;;;;;;6.20;4.90;;;19.70;99.90;;;;;;494050;241;28857;-70